sensor_id;sensor_type;location;lat;lon;timestamp;temperature;humidity
48515;DHT22;34309;47.260;2.796;2023-04-15T00:01:50;21.80;22.80
48515;DHT22;34309;47.260;2.796;2023-04-15T00:04:25;21.80;22.90
48515;DHT22;34309;47.260;2.796;2023-04-15T00:06:59;21.70;22.90
48515;DHT22;34309;47.260;2.796;2023-04-15T00:09:34;21.70;22.90
48515;DHT22;34309;47.260;2.796;2023-04-15T00:12:10;21.70;22.90
48515;DHT22;34309;47.260;2.796;2023-04-15T00:14:44;21.70;22.90
48515;DHT22;34309;47.260;2.796;2023-04-15T00:17:18;21.70;23.00
48515;DHT22;34309;47.260;2.796;2023-04-15T00:19:53;21.60;23.00
48515;DHT22;34309;47.260;2.796;2023-04-15T00:22:27;21.70;23.10
48515;DHT22;34309;47.260;2.796;2023-04-15T00:25:01;21.70;23.10
48515;DHT22;34309;47.260;2.796;2023-04-15T00:27:35;21.70;23.10
48515;DHT22;34309;47.260;2.796;2023-04-15T00:30:09;21.70;23.20
48515;DHT22;34309;47.260;2.796;2023-04-15T00:32:39;21.70;23.10
48515;DHT22;34309;47.260;2.796;2023-04-15T00:35:15;21.80;23.40
48515;DHT22;34309;47.260;2.796;2023-04-15T00:37:48;21.80;23.00
48515;DHT22;34309;47.260;2.796;2023-04-15T00:40:23;21.90;23.10
48515;DHT22;34309;47.260;2.796;2023-04-15T00:42:57;21.90;23.20
48515;DHT22;34309;47.260;2.796;2023-04-15T00:45:31;21.90;23.30
48515;DHT22;34309;47.260;2.796;2023-04-15T00:48:06;22.00;23.40
48515;DHT22;34309;47.260;2.796;2023-04-15T00:50:44;22.00;23.30
48515;DHT22;34309;47.260;2.796;2023-04-15T00:53:13;22.00;23.30
48515;DHT22;34309;47.260;2.796;2023-04-15T00:55:47;22.00;23.40
48515;DHT22;34309;47.260;2.796;2023-04-15T00:58:21;22.10;23.30
48515;DHT22;34309;47.260;2.796;2023-04-15T01:00:55;22.10;23.20
48515;DHT22;34309;47.260;2.796;2023-04-15T01:03:29;22.10;23.30
48515;DHT22;34309;47.260;2.796;2023-04-15T01:06:05;22.10;23.20
48515;DHT22;34309;47.260;2.796;2023-04-15T01:08:39;22.20;23.30
48515;DHT22;34309;47.260;2.796;2023-04-15T01:11:14;22.10;23.20
48515;DHT22;34309;47.260;2.796;2023-04-15T01:13:48;22.10;23.20
48515;DHT22;34309;47.260;2.796;2023-04-15T01:16:23;22.20;23.30
48515;DHT22;34309;47.260;2.796;2023-04-15T01:18:57;22.10;23.30
48515;DHT22;34309;47.260;2.796;2023-04-15T01:21:35;22.10;23.30
48515;DHT22;34309;47.260;2.796;2023-04-15T01:24:08;22.20;23.40
48515;DHT22;34309;47.260;2.796;2023-04-15T01:26:44;22.20;23.30
48515;DHT22;34309;47.260;2.796;2023-04-15T01:29:18;22.20;23.30
48515;DHT22;34309;47.260;2.796;2023-04-15T01:31:53;22.20;23.30
48515;DHT22;34309;47.260;2.796;2023-04-15T01:34:28;22.20;23.40
48515;DHT22;34309;47.260;2.796;2023-04-15T01:37:01;22.20;23.30
48515;DHT22;34309;47.260;2.796;2023-04-15T01:39:35;22.20;23.40
48515;DHT22;34309;47.260;2.796;2023-04-15T01:42:12;22.20;23.40
48515;DHT22;34309;47.260;2.796;2023-04-15T01:44:45;22.20;23.50
48515;DHT22;34309;47.260;2.796;2023-04-15T01:47:19;22.20;23.50
48515;DHT22;34309;47.260;2.796;2023-04-15T01:49:55;22.20;23.40
48515;DHT22;34309;47.260;2.796;2023-04-15T01:52:31;22.20;23.40
48515;DHT22;34309;47.260;2.796;2023-04-15T01:55:06;22.20;23.50
48515;DHT22;34309;47.260;2.796;2023-04-15T01:57:42;22.20;23.50
48515;DHT22;34309;47.260;2.796;2023-04-15T02:00:15;22.10;23.50
48515;DHT22;34309;47.260;2.796;2023-04-15T02:02:49;22.10;23.50
48515;DHT22;34309;47.260;2.796;2023-04-15T02:05:23;22.10;23.60
48515;DHT22;34309;47.260;2.796;2023-04-15T02:07:57;22.10;23.60
48515;DHT22;34309;47.260;2.796;2023-04-15T02:10:30;22.10;23.70
48515;DHT22;34309;47.260;2.796;2023-04-15T02:13:01;22.10;23.70
48515;DHT22;34309;47.260;2.796;2023-04-15T02:15:34;22.10;23.70
48515;DHT22;34309;47.260;2.796;2023-04-15T02:18:08;22.00;23.50
48515;DHT22;34309;47.260;2.796;2023-04-15T02:20:37;22.00;23.50
48515;DHT22;34309;47.260;2.796;2023-04-15T02:23:11;22.00;23.60
48515;DHT22;34309;47.260;2.796;2023-04-15T02:25:45;22.00;23.60
48515;DHT22;34309;47.260;2.796;2023-04-15T02:28:20;22.00;23.70
48515;DHT22;34309;47.260;2.796;2023-04-15T02:30:54;22.00;23.60
48515;DHT22;34309;47.260;2.796;2023-04-15T02:33:30;21.90;23.60
48515;DHT22;34309;47.260;2.796;2023-04-15T02:36:04;21.90;23.70
48515;DHT22;34309;47.260;2.796;2023-04-15T02:38:39;21.90;23.70
48515;DHT22;34309;47.260;2.796;2023-04-15T02:41:14;21.90;23.80
48515;DHT22;34309;47.260;2.796;2023-04-15T02:43:49;21.90;23.80
48515;DHT22;34309;47.260;2.796;2023-04-15T02:46:22;21.90;24.00
48515;DHT22;34309;47.260;2.796;2023-04-15T02:48:56;21.80;23.80
48515;DHT22;34309;47.260;2.796;2023-04-15T02:51:31;21.80;23.90
48515;DHT22;34309;47.260;2.796;2023-04-15T02:54:04;21.80;23.90
48515;DHT22;34309;47.260;2.796;2023-04-15T02:56:39;21.80;24.00
48515;DHT22;34309;47.260;2.796;2023-04-15T02:59:14;21.80;23.90
48515;DHT22;34309;47.260;2.796;2023-04-15T03:01:48;21.80;24.00
48515;DHT22;34309;47.260;2.796;2023-04-15T03:04:21;21.70;23.90
48515;DHT22;34309;47.260;2.796;2023-04-15T03:06:55;21.70;24.00
48515;DHT22;34309;47.260;2.796;2023-04-15T03:09:29;21.70;24.30
48515;DHT22;34309;47.260;2.796;2023-04-15T03:11:59;21.70;24.10
48515;DHT22;34309;47.260;2.796;2023-04-15T03:14:34;21.70;24.10
48515;DHT22;34309;47.260;2.796;2023-04-15T03:17:08;21.70;24.10
48515;DHT22;34309;47.260;2.796;2023-04-15T03:19:42;21.60;24.20
48515;DHT22;34309;47.260;2.796;2023-04-15T03:22:16;21.60;24.00
48515;DHT22;34309;47.260;2.796;2023-04-15T03:24:49;21.60;24.10
48515;DHT22;34309;47.260;2.796;2023-04-15T03:27:24;21.60;24.10
48515;DHT22;34309;47.260;2.796;2023-04-15T03:29:59;21.60;24.10
48515;DHT22;34309;47.260;2.796;2023-04-15T03:32:33;21.60;24.10
48515;DHT22;34309;47.260;2.796;2023-04-15T03:35:07;21.50;24.10
48515;DHT22;34309;47.260;2.796;2023-04-15T03:37:41;21.50;24.10
48515;DHT22;34309;47.260;2.796;2023-04-15T03:40:15;21.50;24.20
48515;DHT22;34309;47.260;2.796;2023-04-15T03:42:48;21.50;24.20
48515;DHT22;34309;47.260;2.796;2023-04-15T03:45:24;21.50;24.30
48515;DHT22;34309;47.260;2.796;2023-04-15T03:47:57;21.50;24.20
48515;DHT22;34309;47.260;2.796;2023-04-15T03:50:31;21.60;24.30
48515;DHT22;34309;47.260;2.796;2023-04-15T03:53:05;21.60;24.30
48515;DHT22;34309;47.260;2.796;2023-04-15T03:55:39;21.70;24.30
48515;DHT22;34309;47.260;2.796;2023-04-15T03:58:12;21.70;24.30
48515;DHT22;34309;47.260;2.796;2023-04-15T04:00:48;21.70;24.20
48515;DHT22;34309;47.260;2.796;2023-04-15T04:03:21;21.70;24.20
48515;DHT22;34309;47.260;2.796;2023-04-15T04:05:55;21.80;24.30
48515;DHT22;34309;47.260;2.796;2023-04-15T04:08:29;21.80;24.10
48515;DHT22;34309;47.260;2.796;2023-04-15T04:11:02;21.90;24.20
48515;DHT22;34309;47.260;2.796;2023-04-15T04:13:31;21.90;24.10
48515;DHT22;34309;47.260;2.796;2023-04-15T04:16:06;22.00;24.00
48515;DHT22;34309;47.260;2.796;2023-04-15T04:18:40;22.00;24.20
48515;DHT22;34309;47.260;2.796;2023-04-15T04:21:14;22.00;23.90
48515;DHT22;34309;47.260;2.796;2023-04-15T04:23:47;22.00;23.80
48515;DHT22;34309;47.260;2.796;2023-04-15T04:26:21;22.10;23.90
48515;DHT22;34309;47.260;2.796;2023-04-15T04:28:55;22.10;23.90
48515;DHT22;34309;47.260;2.796;2023-04-15T04:31:30;22.00;23.80
48515;DHT22;34309;47.260;2.796;2023-04-15T04:34:04;22.10;23.80
48515;DHT22;34309;47.260;2.796;2023-04-15T04:36:37;22.10;23.90
48515;DHT22;34309;47.260;2.796;2023-04-15T04:39:11;22.10;23.70
48515;DHT22;34309;47.260;2.796;2023-04-15T04:41:45;22.10;23.80
48515;DHT22;34309;47.260;2.796;2023-04-15T04:44:18;22.10;23.80
48515;DHT22;34309;47.260;2.796;2023-04-15T04:46:53;22.00;23.70
48515;DHT22;34309;47.260;2.796;2023-04-15T04:49:27;22.00;24.30
48515;DHT22;34309;47.260;2.796;2023-04-15T04:52:01;22.10;23.90
48515;DHT22;34309;47.260;2.796;2023-04-15T04:54:35;22.10;23.80
48515;DHT22;34309;47.260;2.796;2023-04-15T04:57:09;22.10;23.80
48515;DHT22;34309;47.260;2.796;2023-04-15T04:59:44;22.10;23.70
48515;DHT22;34309;47.260;2.796;2023-04-15T05:02:19;22.10;23.60
48515;DHT22;34309;47.260;2.796;2023-04-15T05:04:53;22.10;23.70
48515;DHT22;34309;47.260;2.796;2023-04-15T05:07:27;22.10;23.80
48515;DHT22;34309;47.260;2.796;2023-04-15T05:10:00;22.10;23.70
48515;DHT22;34309;47.260;2.796;2023-04-15T05:12:35;22.10;23.80
48515;DHT22;34309;47.260;2.796;2023-04-15T05:15:10;22.00;23.80
48515;DHT22;34309;47.260;2.796;2023-04-15T05:17:45;22.00;23.90
48515;DHT22;34309;47.260;2.796;2023-04-15T05:20:18;22.00;23.70
48515;DHT22;34309;47.260;2.796;2023-04-15T05:22:52;22.00;23.70
48515;DHT22;34309;47.260;2.796;2023-04-15T05:25:25;22.00;23.80
48515;DHT22;34309;47.260;2.796;2023-04-15T05:27:59;22.00;24.00
48515;DHT22;34309;47.260;2.796;2023-04-15T05:30:28;21.90;23.80
48515;DHT22;34309;47.260;2.796;2023-04-15T05:33:03;21.90;23.60
48515;DHT22;34309;47.260;2.796;2023-04-15T05:35:37;21.90;23.80
48515;DHT22;34309;47.260;2.796;2023-04-15T05:38:11;21.90;23.70
48515;DHT22;34309;47.260;2.796;2023-04-15T05:40:44;21.90;23.90
48515;DHT22;34309;47.260;2.796;2023-04-15T05:43:18;21.90;24.10
48515;DHT22;34309;47.260;2.796;2023-04-15T05:45:52;21.80;23.70
48515;DHT22;34309;47.260;2.796;2023-04-15T05:48:28;21.80;23.80
48515;DHT22;34309;47.260;2.796;2023-04-15T05:51:02;21.80;23.70
48515;DHT22;34309;47.260;2.796;2023-04-15T05:53:36;21.80;23.70
48515;DHT22;34309;47.260;2.796;2023-04-15T05:56:10;21.80;23.80
48515;DHT22;34309;47.260;2.796;2023-04-15T05:58:44;21.80;24.30
48515;DHT22;34309;47.260;2.796;2023-04-15T06:01:13;21.80;23.80
48515;DHT22;34309;47.260;2.796;2023-04-15T06:03:48;21.70;23.70
48515;DHT22;34309;47.260;2.796;2023-04-15T06:06:22;21.70;23.80
48515;DHT22;34309;47.260;2.796;2023-04-15T06:08:56;21.70;23.90
48515;DHT22;34309;47.260;2.796;2023-04-15T06:11:30;21.70;23.80
48515;DHT22;34309;47.260;2.796;2023-04-15T06:14:03;21.60;23.80
48515;DHT22;34309;47.260;2.796;2023-04-15T06:16:37;21.60;23.80
48515;DHT22;34309;47.260;2.796;2023-04-15T06:19:12;21.60;23.80
48515;DHT22;34309;47.260;2.796;2023-04-15T06:21:47;21.60;23.80
48515;DHT22;34309;47.260;2.796;2023-04-15T06:24:20;21.60;23.80
48515;DHT22;34309;47.260;2.796;2023-04-15T06:26:54;21.60;23.80
48515;DHT22;34309;47.260;2.796;2023-04-15T06:29:28;21.60;23.80
48515;DHT22;34309;47.260;2.796;2023-04-15T06:32:02;21.70;23.90
48515;DHT22;34309;47.260;2.796;2023-04-15T06:34:37;21.70;23.80
48515;DHT22;34309;47.260;2.796;2023-04-15T06:37:11;21.80;23.70
48515;DHT22;34309;47.260;2.796;2023-04-15T06:39:47;21.90;23.70
48515;DHT22;34309;47.260;2.796;2023-04-15T06:42:20;21.90;23.80
48515;DHT22;34309;47.260;2.796;2023-04-15T06:44:55;22.00;23.70
48515;DHT22;34309;47.260;2.796;2023-04-15T06:47:28;22.00;23.70
48515;DHT22;34309;47.260;2.796;2023-04-15T06:49:58;22.10;23.70
48515;DHT22;34309;47.260;2.796;2023-04-15T06:52:32;22.10;23.60
48515;DHT22;34309;47.260;2.796;2023-04-15T06:55:07;22.20;23.50
48515;DHT22;34309;47.260;2.796;2023-04-15T06:57:41;22.20;23.40
48515;DHT22;34309;47.260;2.796;2023-04-15T07:00:15;22.20;23.30
48515;DHT22;34309;47.260;2.796;2023-04-15T07:02:48;22.30;23.40
48515;DHT22;34309;47.260;2.796;2023-04-15T07:05:24;22.30;23.40
48515;DHT22;34309;47.260;2.796;2023-04-15T07:07:59;22.30;23.50
48515;DHT22;34309;47.260;2.796;2023-04-15T07:10:33;22.30;23.30
48515;DHT22;34309;47.260;2.796;2023-04-15T07:13:06;22.40;23.30
48515;DHT22;34309;47.260;2.796;2023-04-15T07:15:40;22.30;23.30
48515;DHT22;34309;47.260;2.796;2023-04-15T07:18:14;22.40;23.30
48515;DHT22;34309;47.260;2.796;2023-04-15T07:20:49;22.40;23.30
48515;DHT22;34309;47.260;2.796;2023-04-15T07:23:23;22.30;23.30
48515;DHT22;34309;47.260;2.796;2023-04-15T07:25:57;22.40;23.20
48515;DHT22;34309;47.260;2.796;2023-04-15T07:28:33;22.40;23.20
48515;DHT22;34309;47.260;2.796;2023-04-15T07:31:07;22.40;23.20
48515;DHT22;34309;47.260;2.796;2023-04-15T07:33:41;22.40;23.20
48515;DHT22;34309;47.260;2.796;2023-04-15T07:36:16;22.30;23.20
48515;DHT22;34309;47.260;2.796;2023-04-15T07:38:50;22.30;23.10
48515;DHT22;34309;47.260;2.796;2023-04-15T07:41:24;22.30;23.10
48515;DHT22;34309;47.260;2.796;2023-04-15T07:43:58;22.30;23.10
48515;DHT22;34309;47.260;2.796;2023-04-15T07:46:32;22.30;23.10
48515;DHT22;34309;47.260;2.796;2023-04-15T07:49:06;22.30;23.10
48515;DHT22;34309;47.260;2.796;2023-04-15T07:51:41;22.30;24.20
48515;DHT22;34309;47.260;2.796;2023-04-15T07:54:15;22.20;23.70
48515;DHT22;34309;47.260;2.796;2023-04-15T07:56:49;22.20;24.30
48515;DHT22;34309;47.260;2.796;2023-04-15T07:59:23;22.20;24.30
48515;DHT22;34309;47.260;2.796;2023-04-15T08:01:58;22.20;24.50
48515;DHT22;34309;47.260;2.796;2023-04-15T08:04:32;22.20;24.70
48515;DHT22;34309;47.260;2.796;2023-04-15T08:07:07;22.20;24.80
48515;DHT22;34309;47.260;2.796;2023-04-15T08:09:36;22.20;24.90
48515;DHT22;34309;47.260;2.796;2023-04-15T08:12:10;22.20;25.00
48515;DHT22;34309;47.260;2.796;2023-04-15T08:14:44;22.20;25.00
48515;DHT22;34309;47.260;2.796;2023-04-15T08:17:18;22.20;25.00
48515;DHT22;34309;47.260;2.796;2023-04-15T08:19:52;22.20;25.10
48515;DHT22;34309;47.260;2.796;2023-04-15T08:22:27;22.20;25.20
48515;DHT22;34309;47.260;2.796;2023-04-15T08:24:56;22.20;25.00
48515;DHT22;34309;47.260;2.796;2023-04-15T08:27:30;22.20;25.20
48515;DHT22;34309;47.260;2.796;2023-04-15T08:29:59;22.20;25.20
48515;DHT22;34309;47.260;2.796;2023-04-15T08:32:33;22.20;25.20
48515;DHT22;34309;47.260;2.796;2023-04-15T08:35:09;22.30;25.20
48515;DHT22;34309;47.260;2.796;2023-04-15T08:37:44;22.30;25.40
48515;DHT22;34309;47.260;2.796;2023-04-15T08:40:18;22.20;25.40
48515;DHT22;34309;47.260;2.796;2023-04-15T08:42:54;22.20;25.20
48515;DHT22;34309;47.260;2.796;2023-04-15T08:45:29;22.20;25.30
48515;DHT22;34309;47.260;2.796;2023-04-15T08:48:04;22.20;25.40
48515;DHT22;34309;47.260;2.796;2023-04-15T08:50:42;22.20;25.60
48515;DHT22;34309;47.260;2.796;2023-04-15T08:53:17;22.20;25.40
48515;DHT22;34309;47.260;2.796;2023-04-15T08:55:51;22.20;25.50
48515;DHT22;34309;47.260;2.796;2023-04-15T08:58:26;22.20;25.60
48515;DHT22;34309;47.260;2.796;2023-04-15T09:01:00;22.20;25.40
48515;DHT22;34309;47.260;2.796;2023-04-15T09:03:34;22.20;25.60
48515;DHT22;34309;47.260;2.796;2023-04-15T09:06:09;22.20;25.50
48515;DHT22;34309;47.260;2.796;2023-04-15T09:08:44;22.20;25.40
48515;DHT22;34309;47.260;2.796;2023-04-15T09:11:18;22.20;25.50
48515;DHT22;34309;47.260;2.796;2023-04-15T09:13:53;22.20;25.50
48515;DHT22;34309;47.260;2.796;2023-04-15T09:16:28;22.20;25.60
48515;DHT22;34309;47.260;2.796;2023-04-15T09:19:20;22.20;25.60
48515;DHT22;34309;47.260;2.796;2023-04-15T09:21:57;22.20;25.70
48515;DHT22;34309;47.260;2.796;2023-04-15T09:24:37;22.20;25.90
48515;DHT22;34309;47.260;2.796;2023-04-15T09:27:15;22.10;25.80
48515;DHT22;34309;47.260;2.796;2023-04-15T09:29:49;22.10;25.90
48515;DHT22;34309;47.260;2.796;2023-04-15T09:32:23;22.10;25.70
48515;DHT22;34309;47.260;2.796;2023-04-15T09:35:00;22.10;25.70
48515;DHT22;34309;47.260;2.796;2023-04-15T09:37:43;22.10;25.60
48515;DHT22;34309;47.260;2.796;2023-04-15T09:40:32;22.10;25.70
48515;DHT22;34309;47.260;2.796;2023-04-15T09:43:07;22.00;25.50
48515;DHT22;34309;47.260;2.796;2023-04-15T09:45:47;22.00;25.60
48515;DHT22;34309;47.260;2.796;2023-04-15T09:48:23;22.10;25.60
48515;DHT22;34309;47.260;2.796;2023-04-15T09:50:58;22.00;25.50
48515;DHT22;34309;47.260;2.796;2023-04-15T09:53:34;22.00;25.50
48515;DHT22;34309;47.260;2.796;2023-04-15T09:56:10;22.00;25.50
48515;DHT22;34309;47.260;2.796;2023-04-15T09:58:39;22.00;25.50
48515;DHT22;34309;47.260;2.796;2023-04-15T10:01:14;22.00;26.10
48515;DHT22;34309;47.260;2.796;2023-04-15T10:03:48;22.00;25.60
48515;DHT22;34309;47.260;2.796;2023-04-15T10:06:23;22.00;25.80
48515;DHT22;34309;47.260;2.796;2023-04-15T10:08:58;21.90;25.80
48515;DHT22;34309;47.260;2.796;2023-04-15T10:11:34;22.00;25.80
48515;DHT22;34309;47.260;2.796;2023-04-15T10:14:09;22.00;25.70
48515;DHT22;34309;47.260;2.796;2023-04-15T10:16:44;22.00;25.80
48515;DHT22;34309;47.260;2.796;2023-04-15T10:19:22;21.90;25.80
48515;DHT22;34309;47.260;2.796;2023-04-15T10:21:58;21.90;26.00
48515;DHT22;34309;47.260;2.796;2023-04-15T10:24:32;22.00;25.80
48515;DHT22;34309;47.260;2.796;2023-04-15T10:27:08;22.00;25.90
48515;DHT22;34309;47.260;2.796;2023-04-15T10:29:37;22.00;25.90
48515;DHT22;34309;47.260;2.796;2023-04-15T10:32:11;22.00;25.90
48515;DHT22;34309;47.260;2.796;2023-04-15T10:34:49;22.00;25.80
48515;DHT22;34309;47.260;2.796;2023-04-15T10:37:34;22.00;26.00
48515;DHT22;34309;47.260;2.796;2023-04-15T10:40:25;22.00;25.90
48515;DHT22;34309;47.260;2.796;2023-04-15T10:43:01;21.90;26.10
48515;DHT22;34309;47.260;2.796;2023-04-15T10:45:36;21.90;26.00
48515;DHT22;34309;47.260;2.796;2023-04-15T10:48:15;21.90;26.00
48515;DHT22;34309;47.260;2.796;2023-04-15T10:50:56;21.90;26.00
48515;DHT22;34309;47.260;2.796;2023-04-15T10:53:32;21.90;26.00
48515;DHT22;34309;47.260;2.796;2023-04-15T10:56:10;21.90;26.10
48515;DHT22;34309;47.260;2.796;2023-04-15T10:58:45;21.90;26.20
48515;DHT22;34309;47.260;2.796;2023-04-15T11:01:19;22.00;26.20
48515;DHT22;34309;47.260;2.796;2023-04-15T11:03:55;21.90;26.30
48515;DHT22;34309;47.260;2.796;2023-04-15T11:06:43;21.90;26.20
48515;DHT22;34309;47.260;2.796;2023-04-15T11:09:31;21.90;26.80
48515;DHT22;34309;47.260;2.796;2023-04-15T11:12:06;21.90;26.20
48515;DHT22;34309;47.260;2.796;2023-04-15T11:14:42;21.90;26.10
48515;DHT22;34309;47.260;2.796;2023-04-15T11:17:26;21.90;26.10
48515;DHT22;34309;47.260;2.796;2023-04-15T11:20:01;21.90;25.90
48515;DHT22;34309;47.260;2.796;2023-04-15T11:22:36;21.90;25.90
48515;DHT22;34309;47.260;2.796;2023-04-15T11:25:06;21.80;25.70
48515;DHT22;34309;47.260;2.796;2023-04-15T11:27:40;21.80;25.60
48515;DHT22;34309;47.260;2.796;2023-04-15T11:30:22;21.80;25.70
48515;DHT22;34309;47.260;2.796;2023-04-15T11:32:58;21.90;25.60
48515;DHT22;34309;47.260;2.796;2023-04-15T11:35:35;21.90;25.70
48515;DHT22;34309;47.260;2.796;2023-04-15T11:38:11;21.80;25.60
48515;DHT22;34309;47.260;2.796;2023-04-15T11:40:45;21.80;25.60
48515;DHT22;34309;47.260;2.796;2023-04-15T11:43:20;21.80;25.50
48515;DHT22;34309;47.260;2.796;2023-04-15T11:45:56;21.80;25.40
48515;DHT22;34309;47.260;2.796;2023-04-15T11:48:31;21.80;25.40
48515;DHT22;34309;47.260;2.796;2023-04-15T11:51:06;21.80;25.10
48515;DHT22;34309;47.260;2.796;2023-04-15T11:53:41;21.80;25.30
48515;DHT22;34309;47.260;2.796;2023-04-15T11:56:19;21.70;25.20
48515;DHT22;34309;47.260;2.796;2023-04-15T11:58:54;21.70;25.30
48515;DHT22;34309;47.260;2.796;2023-04-15T12:01:34;21.70;25.40
48515;DHT22;34309;47.260;2.796;2023-04-15T12:04:10;21.70;25.20
48515;DHT22;34309;47.260;2.796;2023-04-15T12:06:45;21.70;25.10
48515;DHT22;34309;47.260;2.796;2023-04-15T12:09:19;21.70;25.10
48515;DHT22;34309;47.260;2.796;2023-04-15T12:11:56;21.60;25.00
48515;DHT22;34309;47.260;2.796;2023-04-15T12:14:31;21.70;25.00
48515;DHT22;34309;47.260;2.796;2023-04-15T12:17:07;21.60;25.00
48515;DHT22;34309;47.260;2.796;2023-04-15T12:19:44;21.60;24.90
48515;DHT22;34309;47.260;2.796;2023-04-15T12:22:20;21.60;24.80
48515;DHT22;34309;47.260;2.796;2023-04-15T12:24:54;21.60;24.90
48515;DHT22;34309;47.260;2.796;2023-04-15T12:27:30;21.60;25.00
48515;DHT22;34309;47.260;2.796;2023-04-15T12:30:04;21.50;24.80
48515;DHT22;34309;47.260;2.796;2023-04-15T12:32:40;21.50;24.70
48515;DHT22;34309;47.260;2.796;2023-04-15T12:35:17;21.50;24.80
48515;DHT22;34309;47.260;2.796;2023-04-15T12:37:52;21.50;24.80
48515;DHT22;34309;47.260;2.796;2023-04-15T12:40:26;21.50;24.70
48515;DHT22;34309;47.260;2.796;2023-04-15T12:43:00;21.50;25.30
48515;DHT22;34309;47.260;2.796;2023-04-15T12:45:34;21.50;24.90
48515;DHT22;34309;47.260;2.796;2023-04-15T12:48:09;21.50;24.70
48515;DHT22;34309;47.260;2.796;2023-04-15T12:50:43;21.40;24.70
48515;DHT22;34309;47.260;2.796;2023-04-15T12:53:16;21.40;24.70
48515;DHT22;34309;47.260;2.796;2023-04-15T12:55:50;21.40;24.60
48515;DHT22;34309;47.260;2.796;2023-04-15T12:58:24;21.40;24.50
48515;DHT22;34309;47.260;2.796;2023-04-15T13:00:58;21.40;24.60
48515;DHT22;34309;47.260;2.796;2023-04-15T13:03:34;21.30;24.50
48515;DHT22;34309;47.260;2.796;2023-04-15T13:06:03;21.30;24.60
48515;DHT22;34309;47.260;2.796;2023-04-15T13:08:37;21.30;24.60
48515;DHT22;34309;47.260;2.796;2023-04-15T13:11:12;21.30;24.60
48515;DHT22;34309;47.260;2.796;2023-04-15T13:13:46;21.30;24.50
48515;DHT22;34309;47.260;2.796;2023-04-15T13:16:20;21.30;24.70
48515;DHT22;34309;47.260;2.796;2023-04-15T13:18:56;21.30;24.50
48515;DHT22;34309;47.260;2.796;2023-04-15T13:21:30;21.20;24.70
48515;DHT22;34309;47.260;2.796;2023-04-15T13:24:06;21.20;24.50
48515;DHT22;34309;47.260;2.796;2023-04-15T13:26:40;21.20;24.50
48515;DHT22;34309;47.260;2.796;2023-04-15T13:29:14;21.20;24.50
48515;DHT22;34309;47.260;2.796;2023-04-15T13:31:48;21.20;24.50
48515;DHT22;34309;47.260;2.796;2023-04-15T13:34:26;21.20;24.50
48515;DHT22;34309;47.260;2.796;2023-04-15T13:37:05;21.10;24.40
48515;DHT22;34309;47.260;2.796;2023-04-15T13:39:39;21.20;24.70
48515;DHT22;34309;47.260;2.796;2023-04-15T13:42:13;21.10;24.50
48515;DHT22;34309;47.260;2.796;2023-04-15T13:44:41;21.10;24.50
48515;DHT22;34309;47.260;2.796;2023-04-15T13:47:15;21.10;24.40
48515;DHT22;34309;47.260;2.796;2023-04-15T13:49:51;21.10;24.50
48515;DHT22;34309;47.260;2.796;2023-04-15T13:52:27;21.10;24.50
48515;DHT22;34309;47.260;2.796;2023-04-15T13:55:01;21.10;24.50
48515;DHT22;34309;47.260;2.796;2023-04-15T13:57:36;21.10;24.40
48515;DHT22;34309;47.260;2.796;2023-04-15T14:00:10;21.10;24.50
48515;DHT22;34309;47.260;2.796;2023-04-15T14:02:45;21.00;24.50
48515;DHT22;34309;47.260;2.796;2023-04-15T14:05:20;21.00;24.50
48515;DHT22;34309;47.260;2.796;2023-04-15T14:07:54;21.00;24.40
48515;DHT22;34309;47.260;2.796;2023-04-15T14:10:28;21.00;24.40
48515;DHT22;34309;47.260;2.796;2023-04-15T14:13:02;21.00;24.40
48515;DHT22;34309;47.260;2.796;2023-04-15T14:15:35;21.00;24.50
48515;DHT22;34309;47.260;2.796;2023-04-15T14:18:09;21.00;24.60
48515;DHT22;34309;47.260;2.796;2023-04-15T14:20:44;20.90;24.50
48515;DHT22;34309;47.260;2.796;2023-04-15T14:23:18;20.90;24.50
48515;DHT22;34309;47.260;2.796;2023-04-15T14:25:52;20.90;24.50
48515;DHT22;34309;47.260;2.796;2023-04-15T14:28:26;20.90;24.30
48515;DHT22;34309;47.260;2.796;2023-04-15T14:31:00;20.90;24.40
48515;DHT22;34309;47.260;2.796;2023-04-15T14:33:34;20.90;24.40
48515;DHT22;34309;47.260;2.796;2023-04-15T14:36:10;20.90;24.40
48515;DHT22;34309;47.260;2.796;2023-04-15T14:38:44;20.90;24.40
48515;DHT22;34309;47.260;2.796;2023-04-15T14:41:17;20.80;24.40
48515;DHT22;34309;47.260;2.796;2023-04-15T14:43:52;20.90;24.40
48515;DHT22;34309;47.260;2.796;2023-04-15T14:46:25;20.80;24.40
48515;DHT22;34309;47.260;2.796;2023-04-15T14:49:00;20.80;24.40
48515;DHT22;34309;47.260;2.796;2023-04-15T14:51:35;20.80;24.40
48515;DHT22;34309;47.260;2.796;2023-04-15T14:54:09;20.80;24.40
48515;DHT22;34309;47.260;2.796;2023-04-15T14:56:38;20.80;24.40
48515;DHT22;34309;47.260;2.796;2023-04-15T14:59:13;20.80;24.40
48515;DHT22;34309;47.260;2.796;2023-04-15T15:01:47;20.80;24.40
48515;DHT22;34309;47.260;2.796;2023-04-15T15:04:21;20.80;24.40
48515;DHT22;34309;47.260;2.796;2023-04-15T15:06:56;20.80;24.40
48515;DHT22;34309;47.260;2.796;2023-04-15T15:09:30;20.70;24.40
48515;DHT22;34309;47.260;2.796;2023-04-15T15:12:04;20.70;24.60
48515;DHT22;34309;47.260;2.796;2023-04-15T15:14:38;20.70;24.70
48515;DHT22;34309;47.260;2.796;2023-04-15T15:17:13;20.70;24.70
48515;DHT22;34309;47.260;2.796;2023-04-15T15:19:47;20.70;24.80
48515;DHT22;34309;47.260;2.796;2023-04-15T15:22:18;20.70;24.80
48515;DHT22;34309;47.260;2.796;2023-04-15T15:24:51;20.70;25.00
48515;DHT22;34309;47.260;2.796;2023-04-15T15:27:28;20.80;25.10
48515;DHT22;34309;47.260;2.796;2023-04-15T15:30:02;20.80;25.10
48515;DHT22;34309;47.260;2.796;2023-04-15T15:32:38;20.80;25.50
48515;DHT22;34309;47.260;2.796;2023-04-15T15:35:12;20.80;25.50
48515;DHT22;34309;47.260;2.796;2023-04-15T15:37:47;20.80;25.40
48515;DHT22;34309;47.260;2.796;2023-04-15T15:40:20;20.80;25.50
48515;DHT22;34309;47.260;2.796;2023-04-15T15:42:54;20.80;25.50
48515;DHT22;34309;47.260;2.796;2023-04-15T15:45:28;20.80;25.50
48515;DHT22;34309;47.260;2.796;2023-04-15T15:48:03;20.80;25.70
48515;DHT22;34309;47.260;2.796;2023-04-15T15:50:33;20.80;25.90
48515;DHT22;34309;47.260;2.796;2023-04-15T15:53:08;20.80;25.80
48515;DHT22;34309;47.260;2.796;2023-04-15T15:55:43;20.80;25.80
48515;DHT22;34309;47.260;2.796;2023-04-15T15:58:17;20.90;25.90
48515;DHT22;34309;47.260;2.796;2023-04-15T16:00:52;20.90;25.90
48515;DHT22;34309;47.260;2.796;2023-04-15T16:03:26;20.90;25.90
48515;DHT22;34309;47.260;2.796;2023-04-15T16:06:00;20.90;25.90
48515;DHT22;34309;47.260;2.796;2023-04-15T16:08:35;20.90;25.90
48515;DHT22;34309;47.260;2.796;2023-04-15T16:11:10;20.90;25.90
48515;DHT22;34309;47.260;2.796;2023-04-15T16:13:39;20.90;25.90
48515;DHT22;34309;47.260;2.796;2023-04-15T16:16:13;20.90;25.90